Time;durP1;ratioP1;P1;durP2;ratioP2;P2;SDS_P1;SDS_P2;PMS_P1;PMS_P2;Temp;Humidity;BMP_temperature;BMP_pressure;BME280_temperature;BME280_humidity;BME280_pressure;Samples;Min_cycle;Max_cycle;Signal;HPM_P1;HPM_P2
2021/08/19 00:00:26;;;;;;;17.10;11.00;;;;;;;;;;5031125;28;20432;-71
2021/08/19 00:02:52;;;;;;;12.80;10.63;;;;;;;;;;5050084;28;20411;-71
2021/08/19 00:05:18;;;;;;;15.80;10.60;;;;;;;;;;5045896;28;20457;-72
2021/08/19 00:07:46;;;;;;;14.80;10.87;;;;;;;;;;5032801;28;20890;-71
2021/08/19 00:10:12;;;;;;;16.23;11.83;;;;;;;;;;5032973;28;20463;-72
2021/08/19 00:12:38;;;;;;;15.50;11.93;;;;;;;;;;5033148;28;20475;-72
2021/08/19 00:15:05;;;;;;;13.40;10.47;;;;;;;;;;5032511;28;20436;-72
2021/08/19 00:17:31;;;;;;;15.63;11.50;;;;;;;;;;5032608;28;20417;-72
2021/08/19 00:19:57;;;;;;;15.00;10.63;;;;;;;;;;5033108;28;20471;-72
2021/08/19 00:22:23;;;;;;;13.40;10.60;;;;;;;;;;5033036;28;20475;-72
2021/08/19 00:24:49;;;;;;;16.83;10.93;;;;;;;;;;5031502;28;20477;-73
2021/08/19 00:27:15;;;;;;;14.30;11.30;;;;;;;;;;5032364;28;20412;-72
2021/08/19 00:29:41;;;;;;;13.90;11.33;;;;;;;;;;5032939;28;20417;-72
2021/08/19 00:32:07;;;;;;;17.40;11.80;;;;;;;;;;5033078;28;20416;-72
2021/08/19 00:34:33;;;;;;;12.60;10.40;;;;;;;;;;5032911;28;20416;-72
2021/08/19 00:36:59;;;;;;;12.80;10.77;;;;;;;;;;5047097;28;20853;-72
2021/08/19 00:39:25;;;;;;;15.23;10.33;;;;;;;;;;5032666;28;20797;-72
2021/08/19 00:41:51;;;;;;;14.60;10.63;;;;;;;;;;5032951;28;20410;-72
2021/08/19 00:44:17;;;;;;;14.00;10.00;;;;;;;;;;5030770;28;20759;-72
2021/08/19 00:46:43;;;;;;;16.07;11.83;;;;;;;;;;5033667;28;20445;-72
2021/08/19 00:49:10;;;;;;;13.50;11.40;;;;;;;;;;5039556;28;20411;-72
2021/08/19 00:51:43;;;;;;;15.70;11.00;;;;;;;;;;5036361;28;20428;-72
2021/08/19 00:54:13;;;;;;;13.73;10.48;;;;;;;;;;5056662;28;20415;-71
2021/08/19 00:56:40;;;;;;;15.20;10.60;;;;;;;;;;5027471;28;20206;-72
2021/08/19 00:59:07;;;;;;;14.07;11.57;;;;;;;;;;5036784;28;20535;-72
2021/08/19 01:01:33;;;;;;;14.67;10.47;;;;;;;;;;5038601;28;20749;-71
2021/08/19 01:03:59;;;;;;;12.50;10.23;;;;;;;;;;5036566;28;20920;-72
2021/08/19 01:06:25;;;;;;;16.13;10.90;;;;;;;;;;5038035;28;20458;-72
2021/08/19 01:08:53;;;;;;;14.07;10.77;;;;;;;;;;5035157;28;20432;-72
2021/08/19 01:11:20;;;;;;;15.90;11.10;;;;;;;;;;5023080;28;20443;-72
2021/08/19 01:13:47;;;;;;;14.83;10.93;;;;;;;;;;5036062;28;20436;-72
2021/08/19 01:16:13;;;;;;;13.97;11.10;;;;;;;;;;5036149;28;20432;-72
2021/08/19 01:18:43;;;;;;;13.60;11.13;;;;;;;;;;5035331;28;20455;-71
2021/08/19 01:21:09;;;;;;;11.50;9.57;;;;;;;;;;5036003;28;20431;-71
2021/08/19 01:23:35;;;;;;;12.23;10.77;;;;;;;;;;5035972;28;20449;-73
2021/08/19 01:26:03;;;;;;;14.10;10.87;;;;;;;;;;5035737;28;20491;-73
2021/08/19 01:28:29;;;;;;;13.43;10.93;;;;;;;;;;5035679;28;20759;-72
2021/08/19 01:30:55;;;;;;;18.97;12.00;;;;;;;;;;5039851;28;20439;-72
2021/08/19 01:33:24;;;;;;;14.40;10.53;;;;;;;;;;5032868;28;20414;-73
2021/08/19 01:35:50;;;;;;;11.37;10.13;;;;;;;;;;5035683;28;20484;-72
2021/08/19 01:38:16;;;;;;;12.63;10.40;;;;;;;;;;5035167;28;20435;-73
2021/08/19 01:40:42;;;;;;;12.50;10.10;;;;;;;;;;5035624;28;20421;-72
2021/08/19 01:43:09;;;;;;;13.33;10.90;;;;;;;;;;5035236;28;20426;-72
2021/08/19 01:45:35;;;;;;;13.50;10.80;;;;;;;;;;5035245;28;20498;-73
2021/08/19 01:48:01;;;;;;;14.80;10.90;;;;;;;;;;5034879;28;20421;-72
2021/08/19 01:50:27;;;;;;;14.03;9.53;;;;;;;;;;5035691;28;20453;-74
2021/08/19 01:52:54;;;;;;;11.90;10.63;;;;;;;;;;5035543;28;20758;-73
2021/08/19 01:55:20;;;;;;;12.30;9.40;;;;;;;;;;5034753;28;20852;-72
2021/08/19 01:57:46;;;;;;;12.07;9.37;;;;;;;;;;5033802;28;20518;-72
2021/08/19 02:00:12;;;;;;;9.27;8.37;;;;;;;;;;5035592;28;20458;-73
2021/08/19 02:02:38;;;;;;;11.70;9.20;;;;;;;;;;5047865;28;20420;-72
2021/08/19 02:05:04;;;;;;;11.27;10.20;;;;;;;;;;5054759;28;20435;-72
2021/08/19 02:07:30;;;;;;;12.20;10.03;;;;;;;;;;5038480;28;20425;-72
2021/08/19 02:09:56;;;;;;;12.63;10.00;;;;;;;;;;5030298;28;20818;-72
2021/08/19 02:12:22;;;;;;;13.13;9.53;;;;;;;;;;5040206;28;20426;-72
2021/08/19 02:14:48;;;;;;;13.53;10.30;;;;;;;;;;5032167;28;20480;-72
2021/08/19 02:17:14;;;;;;;13.00;9.97;;;;;;;;;;5049033;28;20420;-72
2021/08/19 02:19:40;;;;;;;13.43;10.20;;;;;;;;;;5053123;28;20466;-72
2021/08/19 02:22:06;;;;;;;13.30;10.53;;;;;;;;;;5046062;28;20420;-72
2021/08/19 02:24:32;;;;;;;11.10;9.90;;;;;;;;;;5046056;28;20416;-72
2021/08/19 02:26:58;;;;;;;15.50;11.37;;;;;;;;;;5043870;28;20416;-72
2021/08/19 02:29:24;;;;;;;14.13;11.50;;;;;;;;;;5044504;28;20406;-72
2021/08/19 02:31:50;;;;;;;13.20;11.57;;;;;;;;;;5034793;28;20432;-72
2021/08/19 02:34:16;;;;;;;12.17;10.67;;;;;;;;;;5019182;28;20575;-73
2021/08/19 02:36:42;;;;;;;14.63;10.67;;;;;;;;;;5033470;28;20961;-73
2021/08/19 02:39:08;;;;;;;13.67;11.53;;;;;;;;;;5034576;28;20453;-72
2021/08/19 02:41:34;;;;;;;13.47;10.73;;;;;;;;;;5034442;28;20408;-72
2021/08/19 02:44:00;;;;;;;16.27;11.27;;;;;;;;;;5034313;28;20425;-72
2021/08/19 02:46:28;;;;;;;17.23;11.13;;;;;;;;;;5040751;28;20452;-70
2021/08/19 02:48:54;;;;;;;14.10;11.67;;;;;;;;;;5034050;28;20495;-73
2021/08/19 02:51:20;;;;;;;14.07;12.10;;;;;;;;;;5034198;28;20932;-71
2021/08/19 02:53:46;;;;;;;16.10;11.80;;;;;;;;;;5034467;28;20433;-71
2021/08/19 02:56:12;;;;;;;17.40;12.90;;;;;;;;;;5033916;28;20435;-71
2021/08/19 02:58:38;;;;;;;14.90;12.67;;;;;;;;;;5053784;28;20516;-71
2021/08/19 03:01:04;;;;;;;19.80;12.07;;;;;;;;;;5039609;28;20451;-72
2021/08/19 03:03:30;;;;;;;15.53;12.30;;;;;;;;;;5034230;28;20439;-70
2021/08/19 03:05:56;;;;;;;15.70;12.00;;;;;;;;;;5033887;28;20449;-70
2021/08/19 03:08:22;;;;;;;17.07;12.50;;;;;;;;;;5029587;28;20448;-71
2021/08/19 03:10:48;;;;;;;19.20;13.77;;;;;;;;;;5045793;28;20462;-71
2021/08/19 03:13:14;;;;;;;17.20;13.97;;;;;;;;;;5036578;28;20424;-71
2021/08/19 03:15:40;;;;;;;18.10;13.73;;;;;;;;;;5027331;28;20798;-71
2021/08/19 03:18:06;;;;;;;15.20;10.80;;;;;;;;;;5033406;28;20408;-71
2021/08/19 03:20:32;;;;;;;12.03;9.83;;;;;;;;;;5033989;28;20433;-70
2021/08/19 03:22:58;;;;;;;13.37;8.97;;;;;;;;;;5033884;28;20404;-71
2021/08/19 03:25:25;;;;;;;9.30;7.70;;;;;;;;;;5033392;28;20454;-70
2021/08/19 03:27:57;;;;;;;12.30;7.40;;;;;;;;;;5030859;28;20785;-71
2021/08/19 03:30:23;;;;;;;9.97;7.07;;;;;;;;;;5033533;28;20519;-72
2021/08/19 03:32:49;;;;;;;12.53;6.97;;;;;;;;;;5033533;28;20437;-71
2021/08/19 03:35:15;;;;;;;6.70;5.80;;;;;;;;;;5033757;28;20513;-71
2021/08/19 03:37:41;;;;;;;7.63;5.30;;;;;;;;;;5029320;28;20418;-71
2021/08/19 03:40:07;;;;;;;8.97;5.50;;;;;;;;;;5044536;28;20462;-71
2021/08/19 03:42:35;;;;;;;10.47;5.40;;;;;;;;;;5049685;28;20473;-71
2021/08/19 03:45:01;;;;;;;7.30;5.00;;;;;;;;;;5053272;28;20860;-72
2021/08/19 03:47:27;;;;;;;7.20;5.50;;;;;;;;;;5043322;28;20773;-71
2021/08/19 03:49:53;;;;;;;5.90;4.90;;;;;;;;;;5033448;28;20421;-72
2021/08/19 03:52:19;;;;;;;7.43;6.03;;;;;;;;;;5032974;28;20983;-71
2021/08/19 03:54:45;;;;;;;9.20;6.40;;;;;;;;;;5033655;28;20452;-71
2021/08/19 03:57:11;;;;;;;9.70;6.20;;;;;;;;;;5027567;28;20439;-71
2021/08/19 03:59:38;;;;;;;10.27;6.07;;;;;;;;;;5032857;28;20464;-71
2021/08/19 04:02:04;;;;;;;10.50;7.15;;;;;;;;;;5033010;28;20431;-73
2021/08/19 04:04:30;;;;;;;11.33;7.60;;;;;;;;;;5033325;28;20197;-72
2021/08/19 04:06:56;;;;;;;10.87;7.57;;;;;;;;;;5029394;28;20468;-72
2021/08/19 04:09:22;;;;;;;10.53;7.03;;;;;;;;;;5041745;28;20828;-72
2021/08/19 04:11:48;;;;;;;10.50;7.93;;;;;;;;;;5030624;28;20408;-72
2021/08/19 04:14:14;;;;;;;11.43;9.20;;;;;;;;;;5045358;28;20423;-72
2021/08/19 04:16:40;;;;;;;10.80;8.63;;;;;;;;;;5052689;28;20459;-72
2021/08/19 04:19:06;;;;;;;7.80;6.93;;;;;;;;;;5031726;28;20452;-72
2021/08/19 04:21:32;;;;;;;9.17;7.77;;;;;;;;;;5036558;28;20432;-72
2021/08/19 04:23:59;;;;;;;12.90;8.10;;;;;;;;;;5039694;28;20874;-72
2021/08/19 04:26:26;;;;;;;8.00;7.20;;;;;;;;;;5039319;28;20470;-70
2021/08/19 04:28:53;;;;;;;13.00;8.23;;;;;;;;;;5038649;28;20424;-71
2021/08/19 04:31:19;;;;;;;9.57;8.43;;;;;;;;;;5039272;28;20424;-72
2021/08/19 04:33:45;;;;;;;12.40;9.03;;;;;;;;;;5039671;28;20916;-72
2021/08/19 04:36:11;;;;;;;9.57;8.57;;;;;;;;;;5039305;28;20574;-71
2021/08/19 04:38:37;;;;;;;12.83;8.70;;;;;;;;;;5038698;28;20821;-71
2021/08/19 04:41:03;;;;;;;10.00;8.13;;;;;;;;;;5038825;28;20432;-71
2021/08/19 04:43:29;;;;;;;11.60;8.87;;;;;;;;;;5039003;28;20435;-71
2021/08/19 04:45:55;;;;;;;9.60;8.37;;;;;;;;;;5039187;28;20445;-72
2021/08/19 04:48:21;;;;;;;9.33;8.43;;;;;;;;;;5038562;28;20440;-71
2021/08/19 04:50:47;;;;;;;10.43;7.73;;;;;;;;;;5036102;28;20425;-71
2021/08/19 04:53:13;;;;;;;8.60;6.90;;;;;;;;;;5051641;28;20772;-71
2021/08/19 04:55:39;;;;;;;10.17;7.10;;;;;;;;;;5047968;28;20791;-71
2021/08/19 04:58:05;;;;;;;9.23;7.80;;;;;;;;;;5038518;28;20431;-71
2021/08/19 05:00:31;;;;;;;9.63;7.77;;;;;;;;;;5038985;28;20436;-72
2021/08/19 05:02:57;;;;;;;9.17;8.10;;;;;;;;;;5038988;28;20444;-71
2021/08/19 05:05:23;;;;;;;10.37;8.70;;;;;;;;;;5039084;28;20543;-72
2021/08/19 05:07:49;;;;;;;9.73;8.77;;;;;;;;;;5033271;28;20506;-74
2021/08/19 05:10:16;;;;;;;12.27;9.70;;;;;;;;;;5059180;28;20824;-72
2021/08/19 05:12:42;;;;;;;13.30;10.30;;;;;;;;;;5043619;28;20417;-72
2021/08/19 05:15:09;;;;;;;11.80;10.60;;;;;;;;;;5049573;28;20440;-71
2021/08/19 05:17:35;;;;;;;13.40;9.93;;;;;;;;;;5038474;28;20432;-72
2021/08/19 05:20:01;;;;;;;12.73;11.00;;;;;;;;;;5035364;28;20466;-72
2021/08/19 05:22:27;;;;;;;14.43;10.45;;;;;;;;;;5039087;28;20448;-72
2021/08/19 05:24:53;;;;;;;12.95;10.80;;;;;;;;;;5038617;28;20202;-72
2021/08/19 05:27:19;;;;;;;13.07;11.23;;;;;;;;;;5038631;28;20173;-72
2021/08/19 05:29:45;;;;;;;14.73;11.60;;;;;;;;;;5038892;28;20541;-72
2021/08/19 05:32:11;;;;;;;15.00;12.90;;;;;;;;;;5036510;28;20424;-72
2021/08/19 05:34:37;;;;;;;15.93;11.63;;;;;;;;;;5035392;28;20448;-71
2021/08/19 05:37:03;;;;;;;14.13;11.37;;;;;;;;;;5035459;28;20774;-72
2021/08/19 05:39:29;;;;;;;14.60;11.30;;;;;;;;;;5035653;28;20460;-72
2021/08/19 05:41:55;;;;;;;11.90;10.53;;;;;;;;;;5035607;28;20430;-71
2021/08/19 05:44:21;;;;;;;12.80;10.03;;;;;;;;;;5035413;28;20432;-73
2021/08/19 05:46:47;;;;;;;11.67;10.20;;;;;;;;;;5033763;28;20789;-73
2021/08/19 05:49:13;;;;;;;11.83;10.43;;;;;;;;;;5035335;28;20444;-72
2021/08/19 05:51:39;;;;;;;12.77;10.23;;;;;;;;;;5035304;28;20432;-72
2021/08/19 05:54:05;;;;;;;14.40;10.10;;;;;;;;;;5034128;28;20902;-72
2021/08/19 05:56:31;;;;;;;12.77;10.60;;;;;;;;;;5028996;28;20507;-73
2021/08/19 05:58:57;;;;;;;12.67;10.77;;;;;;;;;;5035108;28;20458;-73
2021/08/19 06:01:23;;;;;;;15.13;11.20;;;;;;;;;;5032585;28;20942;-72
2021/08/19 06:03:49;;;;;;;13.73;11.40;;;;;;;;;;5035323;28;20915;-72
2021/08/19 06:06:17;;;;;;;13.70;11.40;;;;;;;;;;5034796;28;20463;-73
2021/08/19 06:08:43;;;;;;;11.90;10.70;;;;;;;;;;5041782;28;20492;-72
2021/08/19 06:11:09;;;;;;;12.30;11.00;;;;;;;;;;5048570;28;20436;-72
2021/08/19 06:13:35;;;;;;;11.60;10.40;;;;;;;;;;5041389;28;20439;-72
2021/08/19 06:16:01;;;;;;;15.47;10.43;;;;;;;;;;5030636;28;20570;-72
2021/08/19 06:18:27;;;;;;;18.20;10.73;;;;;;;;;;5046942;28;20445;-72
2021/08/19 06:20:53;;;;;;;11.97;9.90;;;;;;;;;;5054990;28;20416;-72
2021/08/19 06:23:20;;;;;;;11.43;9.20;;;;;;;;;;5038842;28;20415;-72
2021/08/19 06:25:46;;;;;;;14.37;9.80;;;;;;;;;;5052448;28;20926;-72
2021/08/19 06:28:12;;;;;;;11.87;9.47;;;;;;;;;;5040574;28;20442;-73
2021/08/19 06:30:38;;;;;;;11.50;9.37;;;;;;;;;;5030510;28;20460;-72
2021/08/19 06:33:05;;;;;;;12.00;9.47;;;;;;;;;;5053941;28;20427;-72
2021/08/19 06:35:31;;;;;;;13.43;9.13;;;;;;;;;;5049021;28;20481;-73
2021/08/19 06:37:57;;;;;;;12.47;8.73;;;;;;;;;;5025344;28;20413;-72
2021/08/19 06:40:23;;;;;;;17.37;9.93;;;;;;;;;;5034531;28;20468;-73
2021/08/19 06:42:49;;;;;;;11.90;9.70;;;;;;;;;;5034417;28;20616;-72
2021/08/19 06:45:16;;;;;;;15.43;9.73;;;;;;;;;;5038611;28;20516;-71
2021/08/19 06:47:42;;;;;;;10.93;9.53;;;;;;;;;;5039752;28;20416;-72
2021/08/19 06:50:08;;;;;;;11.70;10.00;;;;;;;;;;5028339;28;20770;-72
2021/08/19 06:52:41;;;;;;;14.00;10.50;;;;;;;;;;5030796;28;20431;-73
2021/08/19 06:55:10;;;;;;;10.13;9.07;;;;;;;;;;5030742;28;20486;-72
2021/08/19 06:57:37;;;;;;;12.37;9.73;;;;;;;;;;5018860;28;20519;-72
2021/08/19 07:00:06;;;;;;;10.10;9.10;;;;;;;;;;5029351;28;20477;-72
2021/08/19 07:02:32;;;;;;;12.93;8.03;;;;;;;;;;5039098;28;20907;-73
2021/08/19 07:04:58;;;;;;;11.47;8.03;;;;;;;;;;5022810;28;20814;-73
2021/08/19 07:07:28;;;;;;;20.40;8.97;;;;;;;;;;5050043;28;20418;-73
2021/08/19 07:09:55;;;;;;;8.77;7.47;;;;;;;;;;5034430;28;20423;-72
2021/08/19 07:12:21;;;;;;;8.37;6.97;;;;;;;;;;5039361;28;21076;-72
2021/08/19 07:14:47;;;;;;;8.53;6.90;;;;;;;;;;5024012;28;20463;-73
2021/08/19 07:17:13;;;;;;;9.30;6.70;;;;;;;;;;5034093;28;20426;-73
2021/08/19 07:19:39;;;;;;;8.40;7.10;;;;;;;;;;5028221;28;20547;-73
2021/08/19 07:22:05;;;;;;;8.10;6.70;;;;;;;;;;5030035;28;21123;-71
2021/08/19 07:24:31;;;;;;;8.30;7.50;;;;;;;;;;5029700;28;20429;-71
2021/08/19 07:26:57;;;;;;;9.60;7.90;;;;;;;;;;5029734;28;20441;-72
2021/08/19 07:29:23;;;;;;;8.47;7.70;;;;;;;;;;5029571;28;20623;-72
2021/08/19 07:31:49;;;;;;;8.00;7.20;;;;;;;;;;5030049;28;21223;-72
2021/08/19 07:34:16;;;;;;;5.57;5.03;;;;;;;;;;5026128;28;20443;-72
2021/08/19 07:36:42;;;;;;;5.80;5.30;;;;;;;;;;5026574;28;21014;-73
2021/08/19 07:39:08;;;;;;;5.90;5.40;;;;;;;;;;5029529;28;20464;-73
2021/08/19 07:41:35;;;;;;;5.87;5.37;;;;;;;;;;5029773;28;20423;-73
2021/08/19 07:44:01;;;;;;;6.70;6.10;;;;;;;;;;5031017;28;20419;-73
2021/08/19 07:46:28;;;;;;;6.17;5.57;;;;;;;;;;5030895;28;20471;-73
2021/08/19 07:48:56;;;;;;;5.90;5.40;;;;;;;;;;5029150;28;20493;-72
2021/08/19 07:51:23;;;;;;;6.83;5.43;;;;;;;;;;5029571;28;20416;-72
2021/08/19 07:53:49;;;;;;;6.23;5.67;;;;;;;;;;5029078;28;20467;-72
2021/08/19 07:56:15;;;;;;;6.40;5.80;;;;;;;;;;5022636;28;20506;-73
2021/08/19 07:58:41;;;;;;;6.37;4.87;;;;;;;;;;5028993;28;20821;-72
2021/08/19 08:01:07;;;;;;;9.30;5.57;;;;;;;;;;5037893;28;20479;-72
2021/08/19 08:03:33;;;;;;;5.63;5.13;;;;;;;;;;5029540;28;20876;-72
2021/08/19 08:05:59;;;;;;;6.90;5.63;;;;;;;;;;5028816;28;20944;-72
2021/08/19 08:08:25;;;;;;;6.87;5.10;;;;;;;;;;5029023;28;20415;-73
2021/08/19 08:10:52;;;;;;;5.93;5.27;;;;;;;;;;5029393;28;20427;-72
2021/08/19 08:13:18;;;;;;;5.30;4.80;;;;;;;;;;5029374;28;20447;-72
2021/08/19 08:15:44;;;;;;;5.70;5.20;;;;;;;;;;5029318;28;20448;-73
2021/08/19 08:18:16;;;;;;;6.03;5.17;;;;;;;;;;5029104;28;20420;-73
2021/08/19 08:20:42;;;;;;;5.87;5.00;;;;;;;;;;5029281;28;20428;-73
2021/08/19 08:23:08;;;;;;;5.93;5.10;;;;;;;;;;5029583;28;20975;-73
2021/08/19 08:25:34;;;;;;;6.23;5.63;;;;;;;;;;5029177;28;20532;-73
2021/08/19 08:28:10;;;;;;;7.83;5.80;;;;;;;;;;5028680;28;20829;-73
2021/08/19 08:30:40;;;;;;;6.03;5.40;;;;;;;;;;5021162;28;20562;-73
2021/08/19 08:33:07;;;;;;;6.37;5.77;;;;;;;;;;5029156;28;20598;-73
2021/08/19 08:35:36;;;;;;;8.73;6.00;;;;;;;;;;5028857;28;20479;-73
2021/08/19 08:38:05;;;;;;;6.37;5.80;;;;;;;;;;5028908;28;20419;-72
2021/08/19 08:40:33;;;;;;;6.50;5.77;;;;;;;;;;5028430;28;20813;-73
2021/08/19 08:42:59;;;;;;;6.23;5.57;;;;;;;;;;5028862;28;20513;-72
2021/08/19 08:45:26;;;;;;;7.30;5.67;;;;;;;;;;5026752;28;20448;-72
2021/08/19 08:47:52;;;;;;;5.97;5.30;;;;;;;;;;5044198;28;20849;-72
2021/08/19 08:50:18;;;;;;;6.50;5.43;;;;;;;;;;5038726;28;20874;-72
2021/08/19 08:52:45;;;;;;;6.73;6.10;;;;;;;;;;5028281;28;20435;-72
2021/08/19 08:55:11;;;;;;;6.73;6.10;;;;;;;;;;5027312;28;20494;-72
2021/08/19 08:57:37;;;;;;;6.33;5.70;;;;;;;;;;5037012;28;20472;-72
2021/08/19 09:00:04;;;;;;;6.57;5.67;;;;;;;;;;5033187;28;20980;-72
2021/08/19 09:02:30;;;;;;;7.13;6.43;;;;;;;;;;5028767;28;20418;-72
2021/08/19 09:05:15;;;;;;;8.37;7.13;;;;;;;;;;5028524;28;20826;-72
2021/08/19 09:07:41;;;;;;;7.23;6.53;;;;;;;;;;5028444;28;20419;-73
2021/08/19 09:10:07;;;;;;;12.33;8.63;;;;;;;;;;5035670;28;20452;-72
2021/08/19 09:12:40;;;;;;;11.73;7.67;;;;;;;;;;5031900;28;20439;-72
2021/08/19 09:15:10;;;;;;;11.17;8.40;;;;;;;;;;5032339;28;20522;-71
2021/08/19 09:17:41;;;;;;;9.60;7.37;;;;;;;;;;5031937;28;20431;-71
2021/08/19 09:20:07;;;;;;;10.20;7.57;;;;;;;;;;5031671;28;20823;-71
2021/08/19 09:22:51;;;;;;;9.63;7.43;;;;;;;;;;5032283;28;20424;-71
2021/08/19 09:25:22;;;;;;;8.33;6.40;;;;;;;;;;5030716;28;20446;-71
2021/08/19 09:28:07;;;;;;;9.70;6.17;;;;;;;;;;5031573;28;20816;-71
2021/08/19 09:30:33;;;;;;;6.90;6.00;;;;;;;;;;5021669;28;20771;-70
2021/08/19 09:33:01;;;;;;;8.37;6.03;;;;;;;;;;5052164;28;20426;-70
2021/08/19 09:35:27;;;;;;;8.83;5.73;;;;;;;;;;5044401;28;20499;-69
2021/08/19 09:37:53;;;;;;;8.23;7.37;;;;;;;;;;5031748;28;20418;-71
2021/08/19 09:40:19;;;;;;;9.50;8.43;;;;;;;;;;5031995;28;20468;-71
2021/08/19 09:42:45;;;;;;;9.53;8.10;;;;;;;;;;5032111;28;20765;-70
2021/08/19 09:45:19;;;;;;;8.70;7.80;;;;;;;;;;5031522;28;20452;-70
2021/08/19 09:47:45;;;;;;;11.30;7.70;;;;;;;;;;5031548;28;20418;-70
2021/08/19 09:50:12;;;;;;;11.20;8.50;;;;;;;;;;5031843;28;20417;-72
2021/08/19 09:52:38;;;;;;;9.47;8.37;;;;;;;;;;5029563;28;20939;-71
2021/08/19 09:55:21;;;;;;;11.57;8.73;;;;;;;;;;5031459;28;20515;-71
2021/08/19 09:57:47;;;;;;;12.77;9.23;;;;;;;;;;5046428;28;20839;-71
2021/08/19 10:00:42;;;;;;;10.80;9.67;;;;;;;;;;5030187;28;20471;-72
2021/08/19 10:03:10;;;;;;;11.13;9.43;;;;;;;;;;5028703;28;20433;-71
2021/08/19 10:05:37;;;;;;;10.20;9.07;;;;;;;;;;5033211;28;20465;-71
2021/08/19 10:08:08;;;;;;;12.03;9.43;;;;;;;;;;5041210;28;20940;-72
2021/08/19 10:10:36;;;;;;;11.60;7.90;;;;;;;;;;5029581;28;20447;-74
2021/08/19 10:13:03;;;;;;;8.80;7.27;;;;;;;;;;5030832;28;20915;-72
2021/08/19 10:15:31;;;;;;;10.37;7.63;;;;;;;;;;5029749;28;20501;-72
2021/08/19 10:17:58;;;;;;;9.93;7.90;;;;;;;;;;5030747;28;20434;-70
2021/08/19 10:20:33;;;;;;;11.80;7.60;;;;;;;;;;5030082;28;21127;-71
2021/08/19 10:23:01;;;;;;;10.80;8.30;;;;;;;;;;5031001;28;20789;-70
2021/08/19 10:25:27;;;;;;;11.60;7.40;;;;;;;;;;5030945;28;20591;-71
2021/08/19 10:28:12;;;;;;;10.97;7.20;;;;;;;;;;5030604;28;20920;-70
2021/08/19 10:30:46;;;;;;;12.97;7.47;;;;;;;;;;5027671;28;20476;-74
2021/08/19 10:33:32;;;;;;;13.80;8.37;;;;;;;;;;5027163;28;20441;-71
2021/08/19 10:35:58;;;;;;;12.07;8.57;;;;;;;;;;5023861;28;20806;-73
2021/08/19 10:38:26;;;;;;;11.80;8.10;;;;;;;;;;5030455;28;20419;-71
2021/08/19 10:40:52;;;;;;;13.57;8.50;;;;;;;;;;5029147;28;20527;-70
2021/08/19 10:43:32;;;;;;;12.17;8.70;;;;;;;;;;5030666;28;20497;-71
2021/08/19 10:46:04;;;;;;;15.00;8.93;;;;;;;;;;5030440;28;21024;-70
2021/08/19 10:48:41;;;;;;;12.87;8.20;;;;;;;;;;5030348;28;20435;-71
2021/08/19 10:51:09;;;;;;;15.77;8.30;;;;;;;;;;5030182;28;20434;-71
2021/08/19 10:53:35;;;;;;;13.17;8.27;;;;;;;;;;5031534;28;20472;-71
2021/08/19 10:56:01;;;;;;;9.70;7.30;;;;;;;;;;5034305;28;20447;-72
2021/08/19 10:58:35;;;;;;;7.90;6.80;;;;;;;;;;5049315;28;20418;-71
2021/08/19 11:01:13;;;;;;;10.33;7.47;;;;;;;;;;5034696;28;20933;-70
2021/08/19 11:03:39;;;;;;;8.50;7.33;;;;;;;;;;5030079;28;20510;-71
2021/08/19 11:06:07;;;;;;;7.63;6.70;;;;;;;;;;5024581;28;20507;-72
2021/08/19 11:08:40;;;;;;;9.37;7.63;;;;;;;;;;5029706;28;20782;-72
2021/08/19 11:11:07;;;;;;;9.90;7.40;;;;;;;;;;5028931;28;20428;-72
2021/08/19 11:13:36;;;;;;;10.20;7.20;;;;;;;;;;5030046;28;20417;-72
2021/08/19 11:16:06;;;;;;;7.10;6.13;;;;;;;;;;5030104;28;20456;-71
2021/08/19 11:18:33;;;;;;;7.90;6.50;;;;;;;;;;5029604;28;20516;-72
2021/08/19 11:21:00;;;;;;;9.23;6.93;;;;;;;;;;5029938;28;20416;-73
2021/08/19 11:23:33;;;;;;;8.50;6.90;;;;;;;;;;5029888;28;20447;-71
2021/08/19 11:26:01;;;;;;;8.53;6.37;;;;;;;;;;5030008;28;20437;-72
2021/08/19 11:28:33;;;;;;;7.53;6.73;;;;;;;;;;5029571;28;20409;-73
2021/08/19 11:30:59;;;;;;;6.07;5.47;;;;;;;;;;5021264;28;20447;-72
2021/08/19 11:33:27;;;;;;;5.23;4.73;;;;;;;;;;5033822;28;20498;-72
2021/08/19 11:35:54;;;;;;;6.10;5.17;;;;;;;;;;5028396;28;20456;-71
2021/08/19 11:38:20;;;;;;;5.73;5.17;;;;;;;;;;5020629;28;20519;-72
2021/08/19 11:40:47;;;;;;;7.43;5.17;;;;;;;;;;5043251;28;20463;-71
2021/08/19 11:43:29;;;;;;;6.73;5.13;;;;;;;;;;5036179;28;20470;-72
2021/08/19 11:46:06;;;;;;;5.73;5.07;;;;;;;;;;5028876;28;20452;-72
2021/08/19 11:48:32;;;;;;;5.93;5.37;;;;;;;;;;5029344;28;20439;-72
2021/08/19 11:51:00;;;;;;;6.83;6.20;;;;;;;;;;5029667;28;20827;-71
2021/08/19 11:53:26;;;;;;;7.43;5.33;;;;;;;;;;5027426;28;20486;-72
2021/08/19 11:55:53;;;;;;;5.83;5.00;;;;;;;;;;5029306;28;20443;-72
2021/08/19 11:58:24;;;;;;;6.30;5.70;;;;;;;;;;5024308;28;20452;-72
2021/08/19 12:01:06;;;;;;;8.10;6.50;;;;;;;;;;5041389;28;20442;-71
2021/08/19 12:03:39;;;;;;;10.77;6.13;;;;;;;;;;5026822;28;20461;-72
2021/08/19 12:06:07;;;;;;;7.77;5.97;;;;;;;;;;5029209;28;20456;-72
2021/08/19 12:08:34;;;;;;;9.00;5.63;;;;;;;;;;5027307;28;20529;-73
2021/08/19 12:11:01;;;;;;;6.20;5.60;;;;;;;;;;5029475;28;20427;-72
2021/08/19 12:13:28;;;;;;;6.93;5.60;;;;;;;;;;5028558;28;20427;-72
2021/08/19 12:15:54;;;;;;;7.57;6.00;;;;;;;;;;5028807;28;20448;-72
2021/08/19 12:18:21;;;;;;;8.87;6.03;;;;;;;;;;5026182;28;20470;-73
2021/08/19 12:20:48;;;;;;;8.20;6.83;;;;;;;;;;5049061;28;20573;-72
2021/08/19 12:23:18;;;;;;;9.70;6.80;;;;;;;;;;5025441;28;20839;-72
2021/08/19 12:25:45;;;;;;;8.23;6.00;;;;;;;;;;5049206;28;20439;-73
2021/08/19 12:28:11;;;;;;;12.07;7.70;;;;;;;;;;5026857;28;20431;-73
2021/08/19 12:30:54;;;;;;;10.70;7.57;;;;;;;;;;5019249;28;20434;-73
2021/08/19 12:33:29;;;;;;;12.23;8.60;;;;;;;;;;5029067;28;20424;-71
2021/08/19 12:36:15;;;;;;;9.40;7.00;;;;;;;;;;5044229;28;20488;-72
2021/08/19 12:38:42;;;;;;;11.90;8.57;;;;;;;;;;5022364;28;20436;-72
2021/08/19 12:41:26;;;;;;;14.07;8.17;;;;;;;;;;5034478;28;20493;-72
2021/08/19 12:44:06;;;;;;;8.27;7.30;;;;;;;;;;5029617;28;20420;-72
2021/08/19 12:46:50;;;;;;;8.33;6.40;;;;;;;;;;5028777;28;20441;-72
2021/08/19 12:49:27;;;;;;;9.17;7.50;;;;;;;;;;5025896;28;20436;-72
2021/08/19 12:52:09;;;;;;;11.47;8.30;;;;;;;;;;5034522;28;20419;-72
2021/08/19 12:54:35;;;;;;;11.70;8.13;;;;;;;;;;5032984;28;20503;-72
2021/08/19 12:57:01;;;;;;;11.80;7.67;;;;;;;;;;5037234;28;20473;-72
2021/08/19 12:59:27;;;;;;;13.60;9.07;;;;;;;;;;5041194;28;20493;-72
2021/08/19 13:01:54;;;;;;;9.70;8.00;;;;;;;;;;5035676;28;20429;-73
2021/08/19 13:04:21;;;;;;;11.10;8.77;;;;;;;;;;5032327;28;20459;-73
2021/08/19 13:06:47;;;;;;;10.70;8.43;;;;;;;;;;5035692;28;20544;-72
2021/08/19 13:09:13;;;;;;;10.37;7.43;;;;;;;;;;5044838;28;20481;-72
2021/08/19 13:11:39;;;;;;;9.33;7.87;;;;;;;;;;5052514;28;20431;-72
2021/08/19 13:14:05;;;;;;;9.93;7.43;;;;;;;;;;5037120;28;20442;-73
2021/08/19 13:16:31;;;;;;;7.80;7.00;;;;;;;;;;5032105;28;20495;-73
2021/08/19 13:18:57;;;;;;;9.30;6.60;;;;;;;;;;5031875;28;20509;-72
2021/08/19 13:21:23;;;;;;;8.30;6.90;;;;;;;;;;5030912;28;20478;-72
2021/08/19 13:23:49;;;;;;;7.87;7.10;;;;;;;;;;5032356;28;20428;-72
2021/08/19 13:26:15;;;;;;;7.33;6.60;;;;;;;;;;5030806;28;20855;-74
2021/08/19 13:28:41;;;;;;;8.90;7.73;;;;;;;;;;5032218;28;20412;-71
2021/08/19 13:31:07;;;;;;;9.50;7.20;;;;;;;;;;5023814;28;20436;-72
2021/08/19 13:33:33;;;;;;;10.80;7.37;;;;;;;;;;5032171;28;20451;-71
2021/08/19 13:35:59;;;;;;;8.47;7.67;;;;;;;;;;5032932;28;20451;-72
2021/08/19 13:38:25;;;;;;;7.80;7.00;;;;;;;;;;5051703;28;20451;-72
2021/08/19 13:40:51;;;;;;;7.80;6.70;;;;;;;;;;5023263;28;20470;-71
2021/08/19 13:43:18;;;;;;;9.90;8.03;;;;;;;;;;5051783;28;20434;-73
2021/08/19 13:45:44;;;;;;;9.17;8.27;;;;;;;;;;5024939;28;20452;-72
2021/08/19 13:48:10;;;;;;;9.87;8.87;;;;;;;;;;5025261;28;20443;-71
2021/08/19 13:50:36;;;;;;;10.13;8.77;;;;;;;;;;5031628;28;20491;-72
2021/08/19 13:53:02;;;;;;;9.83;8.90;;;;;;;;;;5031248;28;20506;-72
2021/08/19 13:55:28;;;;;;;13.20;9.83;;;;;;;;;;5030902;28;20461;-73
2021/08/19 13:57:57;;;;;;;17.03;13.23;;;;;;;;;;5033117;28;20447;-72
2021/08/19 14:00:23;;;;;;;10.10;9.07;;;;;;;;;;5029922;28;20466;-71
2021/08/19 14:02:51;;;;;;;10.20;9.20;;;;;;;;;;5021717;28;20442;-72
2021/08/19 14:05:17;;;;;;;12.90;10.50;;;;;;;;;;5026182;28;20469;-72
2021/08/19 14:07:43;;;;;;;10.47;9.10;;;;;;;;;;5033903;28;20910;-72
2021/08/19 14:10:10;;;;;;;12.40;10.40;;;;;;;;;;5029872;28;20441;-73
2021/08/19 14:12:36;;;;;;;10.93;8.97;;;;;;;;;;5031349;28;20428;-72
2021/08/19 14:15:02;;;;;;;10.77;9.77;;;;;;;;;;5030663;28;20454;-71
2021/08/19 14:17:29;;;;;;;9.60;8.60;;;;;;;;;;5030895;28;20424;-71
2021/08/19 14:19:55;;;;;;;12.30;9.63;;;;;;;;;;5030586;28;20517;-72
2021/08/19 14:22:21;;;;;;;10.43;9.33;;;;;;;;;;5035981;28;20407;-72
2021/08/19 14:24:47;;;;;;;14.53;9.70;;;;;;;;;;5050921;28;20420;-73
2021/08/19 14:27:13;;;;;;;11.50;9.60;;;;;;;;;;5026220;28;20819;-72
2021/08/19 14:29:39;;;;;;;11.10;9.23;;;;;;;;;;5022185;28;20491;-72
2021/08/19 14:32:05;;;;;;;10.60;9.23;;;;;;;;;;5023554;28;20447;-72